sensor_id;sensor_type;location;lat;lon;timestamp;temperature;humidity
68257;DHT22;55069;51.568;4.656;2023-02-18T00:01:23;10.93;91.33
68257;DHT22;55069;51.568;4.656;2023-02-18T00:03:49;10.95;91.47
68257;DHT22;55069;51.568;4.656;2023-02-18T00:06:21;10.96;91.33
68257;DHT22;55069;51.568;4.656;2023-02-18T00:08:48;10.99;91.30
68257;DHT22;55069;51.568;4.656;2023-02-18T00:11:15;11.01;91.13
68257;DHT22;55069;51.568;4.656;2023-02-18T00:13:41;11.01;91.32
68257;DHT22;55069;51.568;4.656;2023-02-18T00:16:11;10.97;91.29
68257;DHT22;55069;51.568;4.656;2023-02-18T00:18:38;11.00;91.37
68257;DHT22;55069;51.568;4.656;2023-02-18T00:21:05;10.97;91.33
68257;DHT22;55069;51.568;4.656;2023-02-18T00:23:31;10.95;91.52
68257;DHT22;55069;51.568;4.656;2023-02-18T00:26:00;10.97;91.58
68257;DHT22;55069;51.568;4.656;2023-02-18T00:28:26;10.97;91.56
68257;DHT22;55069;51.568;4.656;2023-02-18T00:30:52;10.97;91.70
68257;DHT22;55069;51.568;4.656;2023-02-18T00:33:17;10.97;91.55
68257;DHT22;55069;51.568;4.656;2023-02-18T00:35:43;10.97;91.73
68257;DHT22;55069;51.568;4.656;2023-02-18T00:38:08;10.97;91.80
68257;DHT22;55069;51.568;4.656;2023-02-18T00:40:37;10.96;91.87
68257;DHT22;55069;51.568;4.656;2023-02-18T00:43:02;10.99;91.96
68257;DHT22;55069;51.568;4.656;2023-02-18T00:45:29;10.96;92.01
68257;DHT22;55069;51.568;4.656;2023-02-18T00:47:55;10.89;92.24
68257;DHT22;55069;51.568;4.656;2023-02-18T00:50:21;10.92;92.10
68257;DHT22;55069;51.568;4.656;2023-02-18T00:52:47;10.93;92.23
68257;DHT22;55069;51.568;4.656;2023-02-18T00:55:12;10.92;92.27
68257;DHT22;55069;51.568;4.656;2023-02-18T00:57:38;10.93;92.45
68257;DHT22;55069;51.568;4.656;2023-02-18T01:00:05;10.90;92.44
68257;DHT22;55069;51.568;4.656;2023-02-18T01:02:30;10.90;92.44
68257;DHT22;55069;51.568;4.656;2023-02-18T01:04:57;10.92;92.37
68257;DHT22;55069;51.568;4.656;2023-02-18T01:07:22;10.90;92.45
68257;DHT22;55069;51.568;4.656;2023-02-18T01:09:48;10.89;92.51
68257;DHT22;55069;51.568;4.656;2023-02-18T01:12:13;10.90;92.61
68257;DHT22;55069;51.568;4.656;2023-02-18T01:14:39;10.89;92.68
68257;DHT22;55069;51.568;4.656;2023-02-18T01:17:05;10.86;92.73
68257;DHT22;55069;51.568;4.656;2023-02-18T01:19:30;10.83;92.73
68257;DHT22;55069;51.568;4.656;2023-02-18T01:21:59;10.89;92.61
68257;DHT22;55069;51.568;4.656;2023-02-18T01:24:24;10.84;92.76
68257;DHT22;55069;51.568;4.656;2023-02-18T01:26:50;10.83;92.84
68257;DHT22;55069;51.568;4.656;2023-02-18T01:29:15;10.79;93.09
68257;DHT22;55069;51.568;4.656;2023-02-18T01:31:41;10.82;93.09
68257;DHT22;55069;51.568;4.656;2023-02-18T01:34:06;10.84;92.94
68257;DHT22;55069;51.568;4.656;2023-02-18T01:36:32;10.84;92.78
68257;DHT22;55069;51.568;4.656;2023-02-18T01:38:57;10.86;92.92
68257;DHT22;55069;51.568;4.656;2023-02-18T01:41:23;10.82;92.98
68257;DHT22;55069;51.568;4.656;2023-02-18T01:46:37;10.86;93.12
68257;DHT22;55069;51.568;4.656;2023-02-18T01:49:04;10.88;92.91
68257;DHT22;55069;51.568;4.656;2023-02-18T01:51:34;10.88;92.98
68257;DHT22;55069;51.568;4.656;2023-02-18T01:54:12;10.88;93.03
68257;DHT22;55069;51.568;4.656;2023-02-18T01:56:49;10.86;93.07
68257;DHT22;55069;51.568;4.656;2023-02-18T01:59:32;10.83;93.22
68257;DHT22;55069;51.568;4.656;2023-02-18T02:01:59;10.83;93.02
68257;DHT22;55069;51.568;4.656;2023-02-18T02:04:25;10.88;92.99
68257;DHT22;55069;51.568;4.656;2023-02-18T02:06:51;10.84;92.90
68257;DHT22;55069;51.568;4.656;2023-02-18T02:09:18;10.88;93.05
68257;DHT22;55069;51.568;4.656;2023-02-18T02:23:34;10.89;93.33
68257;DHT22;55069;51.568;4.656;2023-02-18T02:50:55;10.79;94.55
68257;DHT22;55069;51.568;4.656;2023-02-18T02:53:29;10.82;94.62
68257;DHT22;55069;51.568;4.656;2023-02-18T02:55:55;10.76;94.66
68257;DHT22;55069;51.568;4.656;2023-02-18T02:58:22;10.79;94.67
68257;DHT22;55069;51.568;4.656;2023-02-18T03:11:46;10.76;94.97
68257;DHT22;55069;51.568;4.656;2023-02-18T03:14:29;10.75;94.94
68257;DHT22;55069;51.568;4.656;2023-02-18T03:17:31;10.75;94.97
68257;DHT22;55069;51.568;4.656;2023-02-18T03:20:07;10.72;94.92
68257;DHT22;55069;51.568;4.656;2023-02-18T03:22:38;10.69;94.96
68257;DHT22;55069;51.568;4.656;2023-02-18T03:25:06;10.73;94.92
68257;DHT22;55069;51.568;4.656;2023-02-18T03:28:27;10.72;94.89
68257;DHT22;55069;51.568;4.656;2023-02-18T03:30:48;10.71;94.83
68257;DHT22;55069;51.568;4.656;2023-02-18T03:33:22;10.69;94.80
68257;DHT22;55069;51.568;4.656;2023-02-18T03:35:51;10.69;94.67
68257;DHT22;55069;51.568;4.656;2023-02-18T03:38:25;10.66;94.74
68257;DHT22;55069;51.568;4.656;2023-02-18T03:40:55;10.63;94.77
68257;DHT22;55069;51.568;4.656;2023-02-18T03:43:20;10.62;94.83
68257;DHT22;55069;51.568;4.656;2023-02-18T03:45:46;10.63;94.92
68257;DHT22;55069;51.568;4.656;2023-02-18T03:48:11;10.58;94.90
68257;DHT22;55069;51.568;4.656;2023-02-18T03:50:37;10.56;94.94
68257;DHT22;55069;51.568;4.656;2023-02-18T03:53:03;10.55;94.93
68257;DHT22;55069;51.568;4.656;2023-02-18T03:55:28;10.56;94.92
68257;DHT22;55069;51.568;4.656;2023-02-18T03:57:54;10.52;94.99
68257;DHT22;55069;51.568;4.656;2023-02-18T04:00:20;10.51;95.01
68257;DHT22;55069;51.568;4.656;2023-02-18T04:02:45;10.52;95.06
68257;DHT22;55069;51.568;4.656;2023-02-18T04:05:11;10.51;95.00
68257;DHT22;55069;51.568;4.656;2023-02-18T04:07:37;10.46;95.11
68257;DHT22;55069;51.568;4.656;2023-02-18T04:10:04;10.46;95.18
68257;DHT22;55069;51.568;4.656;2023-02-18T04:12:30;10.44;95.35
68257;DHT22;55069;51.568;4.656;2023-02-18T04:14:56;10.41;95.39
68257;DHT22;55069;51.568;4.656;2023-02-18T04:17:21;10.42;95.49
68257;DHT22;55069;51.568;4.656;2023-02-18T04:19:47;10.40;95.50
68257;DHT22;55069;51.568;4.656;2023-02-18T04:22:13;10.40;95.47
68257;DHT22;55069;51.568;4.656;2023-02-18T04:24:38;10.35;95.44
68257;DHT22;55069;51.568;4.656;2023-02-18T04:27:04;10.35;95.49
68257;DHT22;55069;51.568;4.656;2023-02-18T04:29:29;10.40;95.52
68257;DHT22;55069;51.568;4.656;2023-02-18T04:31:55;10.40;95.53
68257;DHT22;55069;51.568;4.656;2023-02-18T04:34:20;10.34;95.51
68257;DHT22;55069;51.568;4.656;2023-02-18T04:36:46;10.35;95.52
68257;DHT22;55069;51.568;4.656;2023-02-18T04:39:12;10.37;95.47
68257;DHT22;55069;51.568;4.656;2023-02-18T04:41:38;10.32;95.55
68257;DHT22;55069;51.568;4.656;2023-02-18T04:44:04;10.31;95.60
68257;DHT22;55069;51.568;4.656;2023-02-18T04:46:29;10.34;95.59
68257;DHT22;55069;51.568;4.656;2023-02-18T04:48:55;10.31;95.57
68257;DHT22;55069;51.568;4.656;2023-02-18T04:51:20;10.31;95.59
68257;DHT22;55069;51.568;4.656;2023-02-18T04:53:46;10.30;95.68
68257;DHT22;55069;51.568;4.656;2023-02-18T04:56:11;10.28;95.70
68257;DHT22;55069;51.568;4.656;2023-02-18T04:58:37;10.30;95.69
68257;DHT22;55069;51.568;4.656;2023-02-18T05:01:03;10.30;95.56
68257;DHT22;55069;51.568;4.656;2023-02-18T05:03:29;10.30;95.57
68257;DHT22;55069;51.568;4.656;2023-02-18T05:05:55;10.28;95.59
68257;DHT22;55069;51.568;4.656;2023-02-18T05:08:21;10.27;95.69
68257;DHT22;55069;51.568;4.656;2023-02-18T05:10:46;10.30;95.61
68257;DHT22;55069;51.568;4.656;2023-02-18T05:13:12;10.30;95.56
68257;DHT22;55069;51.568;4.656;2023-02-18T05:15:37;10.31;95.50
68257;DHT22;55069;51.568;4.656;2023-02-18T05:18:03;10.28;95.43
68257;DHT22;55069;51.568;4.656;2023-02-18T05:20:28;10.28;95.30
68257;DHT22;55069;51.568;4.656;2023-02-18T05:22:54;10.27;95.17
68257;DHT22;55069;51.568;4.656;2023-02-18T05:25:20;10.25;95.17
68257;DHT22;55069;51.568;4.656;2023-02-18T05:27:45;10.25;95.22
68257;DHT22;55069;51.568;4.656;2023-02-18T05:30:11;10.22;95.30
68257;DHT22;55069;51.568;4.656;2023-02-18T05:32:37;10.22;95.36
68257;DHT22;55069;51.568;4.656;2023-02-18T05:35:02;10.20;95.38
68257;DHT22;55069;51.568;4.656;2023-02-18T05:37:28;10.21;95.41
68257;DHT22;55069;51.568;4.656;2023-02-18T05:39:53;10.20;95.41
68257;DHT22;55069;51.568;4.656;2023-02-18T05:42:19;10.18;95.33
68257;DHT22;55069;51.568;4.656;2023-02-18T05:44:45;10.14;95.31
68257;DHT22;55069;51.568;4.656;2023-02-18T05:47:11;10.15;95.40
68257;DHT22;55069;51.568;4.656;2023-02-18T05:49:39;10.17;95.28
68257;DHT22;55069;51.568;4.656;2023-02-18T05:52:04;10.14;95.35
68257;DHT22;55069;51.568;4.656;2023-02-18T05:54:30;10.15;95.43
68257;DHT22;55069;51.568;4.656;2023-02-18T05:56:56;10.15;95.46
68257;DHT22;55069;51.568;4.656;2023-02-18T05:59:22;10.13;95.52
68257;DHT22;55069;51.568;4.656;2023-02-18T06:01:48;10.13;95.46
68257;DHT22;55069;51.568;4.656;2023-02-18T06:04:14;10.11;95.48
68257;DHT22;55069;51.568;4.656;2023-02-18T06:06:41;10.11;95.58
68257;DHT22;55069;51.568;4.656;2023-02-18T06:09:07;10.10;95.42
68257;DHT22;55069;51.568;4.656;2023-02-18T06:11:33;10.11;95.38
68257;DHT22;55069;51.568;4.656;2023-02-18T06:13:58;10.07;95.26
68257;DHT22;55069;51.568;4.656;2023-02-18T06:16:24;10.04;95.24
68257;DHT22;55069;51.568;4.656;2023-02-18T06:18:50;10.07;95.29
68257;DHT22;55069;51.568;4.656;2023-02-18T06:21:15;10.07;95.29
68257;DHT22;55069;51.568;4.656;2023-02-18T06:23:41;10.05;95.13
68257;DHT22;55069;51.568;4.656;2023-02-18T06:26:06;10.01;95.10
68257;DHT22;55069;51.568;4.656;2023-02-18T06:28:32;10.03;94.99
68257;DHT22;55069;51.568;4.656;2023-02-18T06:30:58;9.98;95.00
68257;DHT22;55069;51.568;4.656;2023-02-18T06:33:23;9.93;94.95
68257;DHT22;55069;51.568;4.656;2023-02-18T06:35:57;9.93;94.97
68257;DHT22;55069;51.568;4.656;2023-02-18T06:38:23;9.84;94.76
68257;DHT22;55069;51.568;4.656;2023-02-18T06:40:49;9.89;94.48
68257;DHT22;55069;51.568;4.656;2023-02-18T06:43:14;9.84;94.20
68257;DHT22;55069;51.568;4.656;2023-02-18T06:45:40;9.84;94.03
68257;DHT22;55069;51.568;4.656;2023-02-18T06:48:05;9.84;93.41
68257;DHT22;55069;51.568;4.656;2023-02-18T06:50:31;9.83;93.45
68257;DHT22;55069;51.568;4.656;2023-02-18T06:52:56;9.79;93.38
68257;DHT22;55069;51.568;4.656;2023-02-18T06:55:24;9.79;93.47
68257;DHT22;55069;51.568;4.656;2023-02-18T06:57:50;9.82;93.26
68257;DHT22;55069;51.568;4.656;2023-02-18T07:00:16;9.80;93.19
68257;DHT22;55069;51.568;4.656;2023-02-18T07:02:41;9.77;92.81
68257;DHT22;55069;51.568;4.656;2023-02-18T07:05:07;9.79;92.43
68257;DHT22;55069;51.568;4.656;2023-02-18T07:07:33;9.84;91.97
68257;DHT22;55069;51.568;4.656;2023-02-18T07:09:58;9.80;92.19
68257;DHT22;55069;51.568;4.656;2023-02-18T07:12:24;9.79;92.02
68257;DHT22;55069;51.568;4.656;2023-02-18T07:14:50;9.80;91.88
68257;DHT22;55069;51.568;4.656;2023-02-18T07:17:15;9.80;91.66
68257;DHT22;55069;51.568;4.656;2023-02-18T07:19:41;9.82;91.15
68257;DHT22;55069;51.568;4.656;2023-02-18T07:22:06;9.79;91.19
68257;DHT22;55069;51.568;4.656;2023-02-18T07:24:32;9.82;91.17
68257;DHT22;55069;51.568;4.656;2023-02-18T07:26:57;9.84;90.20
68257;DHT22;55069;51.568;4.656;2023-02-18T07:29:23;9.84;90.70
68257;DHT22;55069;51.568;4.656;2023-02-18T07:31:48;9.80;90.11
68257;DHT22;55069;51.568;4.656;2023-02-18T07:34:14;9.80;89.88
68257;DHT22;55069;51.568;4.656;2023-02-18T07:36:39;9.82;90.20
68257;DHT22;55069;51.568;4.656;2023-02-18T07:39:05;9.86;90.15
68257;DHT22;55069;51.568;4.656;2023-02-18T07:41:30;9.86;89.94
68257;DHT22;55069;51.568;4.656;2023-02-18T07:43:56;9.87;89.76
68257;DHT22;55069;51.568;4.656;2023-02-18T07:46:21;9.89;89.95
68257;DHT22;55069;51.568;4.656;2023-02-18T07:48:47;9.90;89.34
68257;DHT22;55069;51.568;4.656;2023-02-18T07:51:13;9.90;88.94
68257;DHT22;55069;51.568;4.656;2023-02-18T07:53:38;9.97;89.09
68257;DHT22;55069;51.568;4.656;2023-02-18T07:56:05;9.97;88.74
68257;DHT22;55069;51.568;4.656;2023-02-18T07:58:34;10.00;88.79
68257;DHT22;55069;51.568;4.656;2023-02-18T08:01:07;10.07;88.27
68257;DHT22;55069;51.568;4.656;2023-02-18T08:03:33;10.13;88.74
68257;DHT22;55069;51.568;4.656;2023-02-18T08:05:59;10.13;87.92
68257;DHT22;55069;51.568;4.656;2023-02-18T08:08:28;10.10;88.41
68257;DHT22;55069;51.568;4.656;2023-02-18T08:10:56;10.14;87.80
68257;DHT22;55069;51.568;4.656;2023-02-18T08:13:22;10.14;87.64
68257;DHT22;55069;51.568;4.656;2023-02-18T08:15:47;10.20;87.93
68257;DHT22;55069;51.568;4.656;2023-02-18T08:18:16;10.32;87.08
68257;DHT22;55069;51.568;4.656;2023-02-18T08:20:42;10.28;87.47
68257;DHT22;55069;51.568;4.656;2023-02-18T08:23:09;10.24;86.90
68257;DHT22;55069;51.568;4.656;2023-02-18T08:25:35;10.24;86.61
68257;DHT22;55069;51.568;4.656;2023-02-18T08:28:01;10.25;86.91
68257;DHT22;55069;51.568;4.656;2023-02-18T08:30:26;10.21;86.55
68257;DHT22;55069;51.568;4.656;2023-02-18T08:32:52;10.18;86.66
68257;DHT22;55069;51.568;4.656;2023-02-18T08:35:18;10.18;86.89
68257;DHT22;55069;51.568;4.656;2023-02-18T08:37:44;10.15;86.20
68257;DHT22;55069;51.568;4.656;2023-02-18T08:40:11;10.14;86.18
68257;DHT22;55069;51.568;4.656;2023-02-18T08:42:37;10.17;86.62
68257;DHT22;55069;51.568;4.656;2023-02-18T08:45:03;10.17;86.19
68257;DHT22;55069;51.568;4.656;2023-02-18T08:47:29;10.17;85.84
68257;DHT22;55069;51.568;4.656;2023-02-18T08:49:54;10.17;85.67
68257;DHT22;55069;51.568;4.656;2023-02-18T08:52:20;10.21;86.08
68257;DHT22;55069;51.568;4.656;2023-02-18T08:54:46;10.25;85.43
68257;DHT22;55069;51.568;4.656;2023-02-18T08:57:12;10.30;85.64
68257;DHT22;55069;51.568;4.656;2023-02-18T08:59:37;10.30;84.78
68257;DHT22;55069;51.568;4.656;2023-02-18T09:02:03;10.37;84.63
68257;DHT22;55069;51.568;4.656;2023-02-18T09:04:29;10.32;84.79
68257;DHT22;55069;51.568;4.656;2023-02-18T09:06:55;10.28;84.42
68257;DHT22;55069;51.568;4.656;2023-02-18T09:09:20;10.28;85.05
68257;DHT22;55069;51.568;4.656;2023-02-18T09:11:46;10.35;85.15
68257;DHT22;55069;51.568;4.656;2023-02-18T09:14:12;10.30;84.58
68257;DHT22;55069;51.568;4.656;2023-02-18T09:16:39;10.35;84.86
68257;DHT22;55069;51.568;4.656;2023-02-18T09:19:04;10.40;85.05
68257;DHT22;55069;51.568;4.656;2023-02-18T09:21:30;10.41;84.26
68257;DHT22;55069;51.568;4.656;2023-02-18T09:23:56;10.41;83.95
68257;DHT22;55069;51.568;4.656;2023-02-18T09:26:22;10.44;83.86
68257;DHT22;55069;51.568;4.656;2023-02-18T09:28:50;10.44;83.83
68257;DHT22;55069;51.568;4.656;2023-02-18T09:31:18;10.46;84.00
68257;DHT22;55069;51.568;4.656;2023-02-18T09:33:48;10.49;84.09
68257;DHT22;55069;51.568;4.656;2023-02-18T09:36:15;10.62;83.97
68257;DHT22;55069;51.568;4.656;2023-02-18T09:38:41;10.63;83.22
68257;DHT22;55069;51.568;4.656;2023-02-18T09:43:54;10.83;83.19
68257;DHT22;55069;51.568;4.656;2023-02-18T09:46:28;10.83;83.27
68257;DHT22;55069;51.568;4.656;2023-02-18T09:48:57;10.79;83.07
68257;DHT22;55069;51.568;4.656;2023-02-18T09:51:25;10.79;83.11
68257;DHT22;55069;51.568;4.656;2023-02-18T09:53:51;10.84;83.79
68257;DHT22;55069;51.568;4.656;2023-02-18T09:56:21;10.84;83.34
68257;DHT22;55069;51.568;4.656;2023-02-18T09:58:48;10.86;83.34
68257;DHT22;55069;51.568;4.656;2023-02-18T10:01:36;10.86;83.54
68257;DHT22;55069;51.568;4.656;2023-02-18T10:04:09;10.84;83.36
68257;DHT22;55069;51.568;4.656;2023-02-18T10:06:37;10.79;83.53
68257;DHT22;55069;51.568;4.656;2023-02-18T10:09:19;10.80;83.54
68257;DHT22;55069;51.568;4.656;2023-02-18T10:11:58;10.84;83.71
68257;DHT22;55069;51.568;4.656;2023-02-18T10:14:26;10.84;83.57
68257;DHT22;55069;51.568;4.656;2023-02-18T10:16:52;10.84;83.64
68257;DHT22;55069;51.568;4.656;2023-02-18T10:21:47;10.86;83.70
68257;DHT22;55069;51.568;4.656;2023-02-18T10:24:26;10.92;83.84
68257;DHT22;55069;51.568;4.656;2023-02-18T10:26:53;10.93;84.03
68257;DHT22;55069;51.568;4.656;2023-02-18T10:29:20;10.88;83.64
68257;DHT22;55069;51.568;4.656;2023-02-18T10:31:56;10.92;83.80
68257;DHT22;55069;51.568;4.656;2023-02-18T10:34:46;10.96;83.56
68257;DHT22;55069;51.568;4.656;2023-02-18T10:40:43;11.07;83.54
68257;DHT22;55069;51.568;4.656;2023-02-18T10:43:35;11.13;83.65
68257;DHT22;55069;51.568;4.656;2023-02-18T10:51:14;11.18;83.55
68257;DHT22;55069;51.568;4.656;2023-02-18T10:53:41;11.20;83.18
68257;DHT22;55069;51.568;4.656;2023-02-18T10:56:31;11.26;83.25
68257;DHT22;55069;51.568;4.656;2023-02-18T11:01:39;11.34;83.21
68257;DHT22;55069;51.568;4.656;2023-02-18T11:04:16;11.37;83.14
68257;DHT22;55069;51.568;4.656;2023-02-18T11:06:47;11.44;82.90
68257;DHT22;55069;51.568;4.656;2023-02-18T11:10:08;11.42;82.80
68257;DHT22;55069;51.568;4.656;2023-02-18T11:12:17;11.48;82.89
68257;DHT22;55069;51.568;4.656;2023-02-18T11:14:47;11.59;82.89
68257;DHT22;55069;51.568;4.656;2023-02-18T11:19:55;11.61;82.55
68257;DHT22;55069;51.568;4.656;2023-02-18T11:24:54;11.62;82.28
68257;DHT22;55069;51.568;4.656;2023-02-18T11:29:55;11.72;82.19
68257;DHT22;55069;51.568;4.656;2023-02-18T11:32:25;11.86;82.09
68257;DHT22;55069;51.568;4.656;2023-02-18T11:34:51;11.90;82.00
68257;DHT22;55069;51.568;4.656;2023-02-18T11:37:19;11.93;81.59
68257;DHT22;55069;51.568;4.656;2023-02-18T11:39:48;12.02;81.39
68257;DHT22;55069;51.568;4.656;2023-02-18T11:42:17;12.17;81.25
68257;DHT22;55069;51.568;4.656;2023-02-18T11:47:21;12.24;81.09
68257;DHT22;55069;51.568;4.656;2023-02-18T11:52:35;12.48;80.33
68257;DHT22;55069;51.568;4.656;2023-02-18T11:55:06;12.41;80.21
68257;DHT22;55069;51.568;4.656;2023-02-18T11:57:37;12.58;80.07
68257;DHT22;55069;51.568;4.656;2023-02-18T12:00:16;12.40;80.04
68257;DHT22;55069;51.568;4.656;2023-02-18T12:02:44;12.51;80.56
68257;DHT22;55069;51.568;4.656;2023-02-18T12:05:22;12.55;80.39
68257;DHT22;55069;51.568;4.656;2023-02-18T12:07:51;12.50;80.27
68257;DHT22;55069;51.568;4.656;2023-02-18T12:10:30;12.58;80.02
68257;DHT22;55069;51.568;4.656;2023-02-18T12:21:10;12.54;79.87
68257;DHT22;55069;51.568;4.656;2023-02-18T12:23:53;12.36;80.03
68257;DHT22;55069;51.568;4.656;2023-02-18T12:26:25;12.16;80.69
68257;DHT22;55069;51.568;4.656;2023-02-18T12:32:08;12.40;80.34
68257;DHT22;55069;51.568;4.656;2023-02-18T12:37:51;12.23;80.91
68257;DHT22;55069;51.568;4.656;2023-02-18T12:51:31;11.93;81.75
68257;DHT22;55069;51.568;4.656;2023-02-18T12:57:12;11.95;82.38
68257;DHT22;55069;51.568;4.656;2023-02-18T12:59:55;11.87;82.32
68257;DHT22;55069;51.568;4.656;2023-02-18T13:11:03;12.14;81.35
68257;DHT22;55069;51.568;4.656;2023-02-18T13:13:37;12.34;81.06
68257;DHT22;55069;51.568;4.656;2023-02-18T13:16:09;12.38;80.61
68257;DHT22;55069;51.568;4.656;2023-02-18T13:18:43;12.40;80.43
68257;DHT22;55069;51.568;4.656;2023-02-18T13:21:14;12.38;80.63
68257;DHT22;55069;51.568;4.656;2023-02-18T13:24:02;12.71;80.23
68257;DHT22;55069;51.568;4.656;2023-02-18T13:26:31;12.79;79.71
68257;DHT22;55069;51.568;4.656;2023-02-18T13:40:19;12.88;78.84
68257;DHT22;55069;51.568;4.656;2023-02-18T13:42:45;13.06;79.27
68257;DHT22;55069;51.568;4.656;2023-02-18T13:47:49;12.89;79.79
68257;DHT22;55069;51.568;4.656;2023-02-18T13:50:20;12.75;79.87
68257;DHT22;55069;51.568;4.656;2023-02-18T13:55:19;12.84;79.37
68257;DHT22;55069;51.568;4.656;2023-02-18T13:57:46;12.84;79.81
68257;DHT22;55069;51.568;4.656;2023-02-18T14:00:21;12.96;79.94
68257;DHT22;55069;51.568;4.656;2023-02-18T14:03:18;12.82;79.82
68257;DHT22;55069;51.568;4.656;2023-02-18T14:05:44;12.96;79.45
68257;DHT22;55069;51.568;4.656;2023-02-18T14:08:14;12.89;79.29
68257;DHT22;55069;51.568;4.656;2023-02-18T14:13:54;12.95;79.21
68257;DHT22;55069;51.568;4.656;2023-02-18T14:19:40;12.79;79.60
68257;DHT22;55069;51.568;4.656;2023-02-18T14:22:30;12.77;79.78
68257;DHT22;55069;51.568;4.656;2023-02-18T14:27:51;12.67;80.09
68257;DHT22;55069;51.568;4.656;2023-02-18T14:32:47;12.69;79.96
68257;DHT22;55069;51.568;4.656;2023-02-18T14:43:48;12.78;80.27
68257;DHT22;55069;51.568;4.656;2023-02-18T14:49:15;12.71;80.39
68257;DHT22;55069;51.568;4.656;2023-02-18T14:51:45;12.71;80.40
68257;DHT22;55069;51.568;4.656;2023-02-18T14:54:17;12.74;80.31
68257;DHT22;55069;51.568;4.656;2023-02-18T14:57:06;12.65;80.04
68257;DHT22;55069;51.568;4.656;2023-02-18T14:59:40;12.71;80.34
68257;DHT22;55069;51.568;4.656;2023-02-18T15:02:19;12.77;80.69
68257;DHT22;55069;51.568;4.656;2023-02-18T15:04:46;12.78;80.29
68257;DHT22;55069;51.568;4.656;2023-02-18T15:07:11;12.55;80.54
68257;DHT22;55069;51.568;4.656;2023-02-18T15:09:46;12.57;80.88
68257;DHT22;55069;51.568;4.656;2023-02-18T15:12:16;12.51;80.66
68257;DHT22;55069;51.568;4.656;2023-02-18T15:14:44;12.47;80.98
68257;DHT22;55069;51.568;4.656;2023-02-18T15:17:21;12.44;81.16
68257;DHT22;55069;51.568;4.656;2023-02-18T15:19:50;12.44;81.35
68257;DHT22;55069;51.568;4.656;2023-02-18T15:22:21;12.37;81.36
68257;DHT22;55069;51.568;4.656;2023-02-18T15:24:49;12.37;81.36
68257;DHT22;55069;51.568;4.656;2023-02-18T15:27:23;12.38;81.38
68257;DHT22;55069;51.568;4.656;2023-02-18T15:29:51;12.40;81.23
68257;DHT22;55069;51.568;4.656;2023-02-18T15:32:23;12.43;81.50
68257;DHT22;55069;51.568;4.656;2023-02-18T15:34:56;12.48;81.48
68257;DHT22;55069;51.568;4.656;2023-02-18T15:37:22;12.47;81.51
68257;DHT22;55069;51.568;4.656;2023-02-18T15:39:48;12.43;81.85
68257;DHT22;55069;51.568;4.656;2023-02-18T15:42:15;12.43;81.83
68257;DHT22;55069;51.568;4.656;2023-02-18T15:44:46;12.38;82.01
68257;DHT22;55069;51.568;4.656;2023-02-18T15:47:13;12.36;82.35
68257;DHT22;55069;51.568;4.656;2023-02-18T15:49:45;12.38;82.18
68257;DHT22;55069;51.568;4.656;2023-02-18T15:52:11;12.33;82.36
68257;DHT22;55069;51.568;4.656;2023-02-18T15:54:39;12.24;82.71
68257;DHT22;55069;51.568;4.656;2023-02-18T15:57:09;12.20;83.02
68257;DHT22;55069;51.568;4.656;2023-02-18T15:59:46;12.14;83.21
68257;DHT22;55069;51.568;4.656;2023-02-18T16:02:20;12.10;83.55
68257;DHT22;55069;51.568;4.656;2023-02-18T16:04:58;12.07;83.54
68257;DHT22;55069;51.568;4.656;2023-02-18T16:07:35;12.09;83.73
68257;DHT22;55069;51.568;4.656;2023-02-18T16:10:12;12.10;83.96
68257;DHT22;55069;51.568;4.656;2023-02-18T16:12:39;12.10;84.06
68257;DHT22;55069;51.568;4.656;2023-02-18T16:15:05;12.10;83.93
68257;DHT22;55069;51.568;4.656;2023-02-18T16:17:31;12.09;84.16
68257;DHT22;55069;51.568;4.656;2023-02-18T16:20:00;12.10;84.22
68257;DHT22;55069;51.568;4.656;2023-02-18T16:27:36;12.07;84.68
68257;DHT22;55069;51.568;4.656;2023-02-18T16:30:15;12.06;84.69
68257;DHT22;55069;51.568;4.656;2023-02-18T16:32:41;11.96;85.07
68257;DHT22;55069;51.568;4.656;2023-02-18T16:35:07;11.95;85.05
68257;DHT22;55069;51.568;4.656;2023-02-18T16:37:33;11.93;85.07
68257;DHT22;55069;51.568;4.656;2023-02-18T16:40:28;11.92;85.33
68257;DHT22;55069;51.568;4.656;2023-02-18T16:43:18;11.93;85.55
68257;DHT22;55069;51.568;4.656;2023-02-18T16:45:45;11.87;85.64
68257;DHT22;55069;51.568;4.656;2023-02-18T16:48:35;11.93;85.66
68257;DHT22;55069;51.568;4.656;2023-02-18T16:51:04;11.81;85.91
68257;DHT22;55069;51.568;4.656;2023-02-18T16:53:31;11.85;86.13
68257;DHT22;55069;51.568;4.656;2023-02-18T16:55:57;11.71;86.73
68257;DHT22;55069;51.568;4.656;2023-02-18T16:58:22;11.74;87.06
68257;DHT22;55069;51.568;4.656;2023-02-18T17:00:49;11.62;87.16
68257;DHT22;55069;51.568;4.656;2023-02-18T17:03:16;11.59;87.18
68257;DHT22;55069;51.568;4.656;2023-02-18T17:05:42;11.62;87.05
68257;DHT22;55069;51.568;4.656;2023-02-18T17:08:25;11.54;87.19
68257;DHT22;55069;51.568;4.656;2023-02-18T17:10:54;11.58;87.40
68257;DHT22;55069;51.568;4.656;2023-02-18T17:13:22;11.54;87.05
68257;DHT22;55069;51.568;4.656;2023-02-18T17:15:51;11.55;87.00
68257;DHT22;55069;51.568;4.656;2023-02-18T17:18:17;11.57;86.69
68257;DHT22;55069;51.568;4.656;2023-02-18T17:20:43;11.57;86.74
68257;DHT22;55069;51.568;4.656;2023-02-18T17:23:16;11.57;86.73
68257;DHT22;55069;51.568;4.656;2023-02-18T17:25:42;11.55;86.97
68257;DHT22;55069;51.568;4.656;2023-02-18T17:28:08;11.55;86.84
68257;DHT22;55069;51.568;4.656;2023-02-18T17:30:37;11.52;86.73
68257;DHT22;55069;51.568;4.656;2023-02-18T17:33:04;11.54;86.80
68257;DHT22;55069;51.568;4.656;2023-02-18T17:35:30;11.57;86.71
68257;DHT22;55069;51.568;4.656;2023-02-18T17:37:56;11.55;86.69
68257;DHT22;55069;51.568;4.656;2023-02-18T17:40:24;11.54;86.59
68257;DHT22;55069;51.568;4.656;2023-02-18T17:42:52;11.48;86.89
68257;DHT22;55069;51.568;4.656;2023-02-18T17:45:25;11.52;86.83
68257;DHT22;55069;51.568;4.656;2023-02-18T17:47:54;11.55;86.68
68257;DHT22;55069;51.568;4.656;2023-02-18T17:50:20;11.55;86.64
68257;DHT22;55069;51.568;4.656;2023-02-18T17:52:45;11.51;86.67
68257;DHT22;55069;51.568;4.656;2023-02-18T17:55:22;11.48;86.73
68257;DHT22;55069;51.568;4.656;2023-02-18T17:57:49;11.48;86.74
68257;DHT22;55069;51.568;4.656;2023-02-18T18:02:50;11.45;86.93
68257;DHT22;55069;51.568;4.656;2023-02-18T18:05:42;11.47;86.94
68257;DHT22;55069;51.568;4.656;2023-02-18T18:08:07;11.45;86.87
68257;DHT22;55069;51.568;4.656;2023-02-18T18:10:36;11.47;87.12
68257;DHT22;55069;51.568;4.656;2023-02-18T18:13:05;11.45;87.06
68257;DHT22;55069;51.568;4.656;2023-02-18T18:15:39;11.44;87.01
68257;DHT22;55069;51.568;4.656;2023-02-18T18:18:06;11.39;87.17
68257;DHT22;55069;51.568;4.656;2023-02-18T18:20:33;11.47;87.20
68257;DHT22;55069;51.568;4.656;2023-02-18T18:23:01;11.44;87.17
68257;DHT22;55069;51.568;4.656;2023-02-18T18:25:27;11.41;87.13
68257;DHT22;55069;51.568;4.656;2023-02-18T18:27:53;11.38;87.29